Time;durP1;ratioP1;P1;durP2;ratioP2;P2;SDS_P1;SDS_P2;PMS_P1;PMS_P2;Temp;Humidity;BMP_temperature;BMP_pressure;BME280_temperature;BME280_humidity;BME280_pressure;Samples;Min_cycle;Max_cycle;Signal;HPM_P1;HPM_P2
2023/04/22 00:01:41;;;;;;;4.15;1.60;;;18.70;51.30;;;;;;20830592;28;20355;-57
2023/04/22 00:11:42;;;;;;;4.82;1.38;;;18.50;51.90;;;;;;20829742;28;20053;-57
2023/04/22 00:21:43;;;;;;;2.08;0.95;;;18.70;51.50;;;;;;20828275;28;20053;-56
2023/04/22 00:31:45;;;;;;;5.13;1.20;;;18.50;53.00;;;;;;20829941;28;20103;-57
2023/04/22 00:41:47;;;;;;;2.40;0.95;;;18.40;54.20;;;;;;20830231;28;20042;-57
2023/04/22 00:51:48;;;;;;;3.28;1.20;;;18.00;59.80;;;;;;20830641;28;20045;-57
2023/04/22 01:01:50;;;;;;;4.60;1.23;;;17.90;63.50;;;;;;20829692;28;20169;-57
2023/04/22 01:11:52;;;;;;;2.50;1.08;;;17.80;64.60;;;;;;20828382;28;20501;-56
2023/04/22 01:21:54;;;;;;;2.08;1.05;;;17.90;64.30;;;;;;20826541;28;20062;-56
2023/04/22 01:31:56;;;;;;;1.83;0.95;;;17.80;64.70;;;;;;20837495;28;20104;-56
2023/04/22 01:41:58;;;;;;;2.28;1.05;;;17.70;65.30;;;;;;20843363;28;20061;-58
2023/04/22 01:52:00;;;;;;;1.58;0.80;;;17.70;65.20;;;;;;20841314;28;20041;-56
2023/04/22 02:02:01;;;;;;;3.67;0.80;;;17.60;65.70;;;;;;20841970;28;20119;-56
2023/04/22 02:12:03;;;;;;;2.22;0.80;;;17.70;65.80;;;;;;20841053;28;20383;-57
2023/04/22 02:22:04;;;;;;;2.72;1.52;;;17.60;65.60;;;;;;20838938;28;20130;-57
2023/04/22 02:32:05;;;;;;;1.80;1.20;;;17.50;66.00;;;;;;20839321;28;20049;-57
2023/04/22 02:42:07;;;;;;;1.40;1.00;;;17.50;66.30;;;;;;20836997;28;20049;-57
2023/04/22 02:52:08;;;;;;;3.28;1.00;;;17.40;66.60;;;;;;20837879;28;20100;-56
2023/04/22 03:02:10;;;;;;;1.42;0.90;;;17.30;67.10;;;;;;20837165;28;20383;-57
2023/04/22 03:12:11;;;;;;;2.22;1.13;;;17.20;69.00;;;;;;20835139;28;20049;-58
2023/04/22 03:22:12;;;;;;;1.65;0.90;;;17.20;68.80;;;;;;20834376;28;20565;-57
2023/04/22 03:32:14;;;;;;;2.15;1.13;;;17.10;68.30;;;;;;20833789;28;20049;-57
2023/04/22 03:42:15;;;;;;;3.58;1.17;;;17.10;68.00;;;;;;20832741;28;20049;-56
2023/04/22 03:52:17;;;;;;;1.08;0.70;;;17.00;68.50;;;;;;20832711;28;20501;-57
2023/04/22 04:02:18;;;;;;;3.17;1.20;;;16.70;68.50;;;;;;20831731;28;20051;-57
2023/04/22 04:12:19;;;;;;;1.55;0.82;;;16.30;72.70;;;;;;20832227;28;20103;-57
2023/04/22 04:22:21;;;;;;;2.85;0.68;;;16.30;73.50;;;;;;20830372;28;20053;-56
2023/04/22 04:32:23;;;;;;;2.25;1.25;;;16.20;73.40;;;;;;20831206;28;20424;-57
2023/04/22 04:42:25;;;;;;;2.15;0.82;;;16.20;74.10;;;;;;20829627;28;20076;-57
2023/04/22 04:52:26;;;;;;;1.38;0.70;;;16.20;74.50;;;;;;20829182;28;20049;-56
2023/04/22 05:02:27;;;;;;;1.80;1.00;;;15.90;75.20;;;;;;20833649;28;20052;-56
2023/04/22 05:12:29;;;;;;;2.03;1.23;;;15.90;75.80;;;;;;20844940;28;20060;-57
2023/04/22 05:22:30;;;;;;;2.20;1.05;;;15.80;75.80;;;;;;20846392;28;20414;-56
2023/04/22 05:32:32;;;;;;;3.67;1.40;;;16.00;75.10;;;;;;20843166;28;20041;-57
2023/04/22 05:42:34;;;;;;;4.97;1.27;;;15.90;76.20;;;;;;20843458;28;20053;-57
2023/04/22 05:52:35;;;;;;;2.28;1.00;;;15.90;76.00;;;;;;20842487;28;20042;-56
2023/04/22 06:02:36;;;;;;;6.93;1.70;;;15.70;75.10;;;;;;20841736;28;20053;-56
2023/04/22 06:12:38;;;;;;;4.55;1.65;;;15.70;76.50;;;;;;20840567;28;20469;-57
2023/04/22 06:22:39;;;;;;;2.30;1.02;;;15.80;75.10;;;;;;20840964;28;20049;-58
2023/04/22 06:32:40;;;;;;;2.47;1.52;;;15.70;76.50;;;;;;20839394;28;20049;-56
2023/04/22 06:42:42;;;;;;;8.63;2.85;;;15.70;76.10;;;;;;20837604;28;20053;-57
2023/04/22 06:52:43;;;;;;;2.60;1.13;;;15.90;76.10;;;;;;20837973;28;20041;-57
2023/04/22 07:02:45;;;;;;;2.35;1.20;;;15.80;75.90;;;;;;20837252;28;20088;-59
2023/04/22 07:12:46;;;;;;;5.20;2.15;;;15.80;75.10;;;;;;20836634;28;20056;-59
2023/04/22 07:22:48;;;;;;;4.93;2.22;;;15.80;75.40;;;;;;20834481;28;20061;-57
2023/04/22 07:32:49;;;;;;;2.78;1.10;;;15.90;74.60;;;;;;20834408;28;20056;-57
2023/04/22 07:42:50;;;;;;;4.25;1.20;;;15.80;75.90;;;;;;20833928;28;20483;-56
2023/04/22 07:52:52;;;;;;;2.35;0.90;;;15.80;75.70;;;;;;20822547;28;20041;-56
2023/04/22 08:02:53;;;;;;;0.93;0.80;;;16.30;73.20;;;;;;20826615;28;20584;-56
2023/04/22 08:12:55;;;;;;;1.00;0.80;;;16.40;72.70;;;;;;20824915;28;20061;-58
2023/04/22 08:22:59;;;;;;;0.85;0.70;;;16.70;73.40;;;;;;20826823;28;20061;-57
2023/04/22 08:33:00;;;;;;;4.40;2.70;;;16.80;71.40;;;;;;20831535;28;20056;-57
2023/04/22 08:43:02;;;;;;;2.92;1.30;;;16.70;71.40;;;;;;20852650;28;20068;-56
2023/04/22 08:53:03;;;;;;;1.63;1.25;;;16.70;70.60;;;;;;20856379;28;20057;-59
2023/04/22 09:03:05;;;;;;;3.17;0.90;;;16.80;68.10;;;;;;20856173;28;20053;-57
2023/04/22 09:13:08;;;;;;;3.33;1.40;;;16.70;68.20;;;;;;20856172;28;20053;-57
2023/04/22 09:23:11;;;;;;;1.90;1.00;;;17.20;66.30;;;;;;20856961;28;20053;-57
2023/04/22 09:33:13;;;;;;;5.17;1.30;;;17.40;64.10;;;;;;20855925;28;20060;-58
2023/04/22 09:43:18;;;;;;;2.45;1.00;;;18.00;61.50;;;;;;20854869;28;20057;-57
2023/04/22 09:53:21;;;;;;;2.55;1.50;;;18.20;58.70;;;;;;20844055;28;20049;-57
2023/04/22 10:03:23;;;;;;;;;;;18.60;57.70;;;;;;20841912;28;20076;-58
2023/04/22 10:13:25;;;;;;;3.10;1.08;;;18.70;57.30;;;;;;20839850;28;19921;-57
2023/04/22 10:23:31;;;;;;;1.73;1.13;;;18.90;55.90;;;;;;20839609;28;20115;-58
2023/04/22 10:33:37;;;;;;;3.30;1.20;;;18.70;55.10;;;;;;20837255;28;20065;-58
2023/04/22 10:43:47;;;;;;;3.50;2.03;;;18.90;53.80;;;;;;20837985;28;20486;-56
2023/04/22 10:53:48;;;;;;;2.25;1.20;;;19.30;51.50;;;;;;20836942;28;20041;-58
2023/04/22 11:03:50;;;;;;;3.92;2.55;;;19.20;51.10;;;;;;20836575;28;20049;-57
2023/04/22 11:13:53;;;;;;;2.05;0.85;;;19.00;51.00;;;;;;20834701;28;20442;-58
2023/04/22 11:23:56;;;;;;;3.35;1.30;;;19.10;45.30;;;;;;20833702;28;20053;-58
2023/04/22 11:33:58;;;;;;;1.57;1.03;;;19.40;45.80;;;;;;20833382;28;20049;-58
2023/04/22 11:44:00;;;;;;;2.77;2.07;;;19.70;45.90;;;;;;20833888;28;20046;-57
2023/04/22 11:54:02;;;;;;;1.50;0.73;;;20.00;42.30;;;;;;20832577;28;20064;-56
2023/04/22 12:04:03;;;;;;;4.70;1.50;;;20.10;42.00;;;;;;20830142;28;20141;-58
2023/04/22 12:14:05;;;;;;;1.45;0.77;;;20.20;42.00;;;;;;20830592;28;20119;-58
2023/04/22 12:24:10;;;;;;;2.40;0.90;;;20.30;39.50;;;;;;20830693;28;20052;-56
2023/04/22 12:34:11;;;;;;;2.05;0.90;;;20.40;38.80;;;;;;20830431;28;20041;-57
2023/04/22 12:44:12;;;;;;;2.30;1.52;;;20.50;33.50;;;;;;20830226;28;20419;-58
2023/04/22 12:54:14;;;;;;;5.15;1.92;;;20.70;35.90;;;;;;20828159;28;20057;-57
2023/04/22 13:04:17;;;;;;;6.07;4.25;;;20.70;31.10;;;;;;20829082;28;20143;-57
2023/04/22 13:14:19;;;;;;;6.65;4.93;;;21.00;30.30;;;;;;20827696;28;20521;-59
2023/04/22 13:24:21;;;;;;;4.40;1.92;;;20.90;29.40;;;;;;20833707;28;20509;-58
2023/04/22 13:34:22;;;;;;;3.13;1.27;;;21.10;30.00;;;;;;20843592;28;20108;-59
2023/04/22 13:44:24;;;;;;;4.40;1.70;;;21.00;31.00;;;;;;20843160;28;20057;-58
2023/04/22 13:54:26;;;;;;;2.80;1.20;;;21.20;30.70;;;;;;20842124;28;20410;-58
2023/04/22 14:04:27;;;;;;;1.20;0.90;;;21.60;30.30;;;;;;20840961;28;20072;-57
2023/04/22 14:14:28;;;;;;;2.05;0.70;;;21.60;29.30;;;;;;20839821;28;20475;-57
2023/04/22 14:24:30;;;;;;;1.58;0.93;;;21.60;29.30;;;;;;20840282;28;20395;-57
2023/04/22 14:34:31;;;;;;;2.80;0.73;;;21.40;29.50;;;;;;20837667;28;20049;-57
2023/04/22 14:44:33;;;;;;;1.40;0.60;;;21.60;31.60;;;;;;20837648;28;20048;-55
2023/04/22 14:54:35;;;;;;;2.40;1.00;;;21.60;28.70;;;;;;20836618;28;20092;-56
2023/04/22 15:04:36;;;;;;;3.30;1.70;;;21.60;28.70;;;;;;20837202;28;20052;-56
2023/04/22 15:14:38;;;;;;;1.40;0.85;;;21.90;26.70;;;;;;20834600;28;20057;-57
2023/04/22 15:24:39;;;;;;;2.67;1.55;;;21.70;28.50;;;;;;20835349;28;20494;-59
2023/04/22 15:34:41;;;;;;;1.45;0.80;;;21.60;26.90;;;;;;20834141;28;20041;-57
2023/04/22 15:44:42;;;;;;;1.42;0.60;;;21.50;28.00;;;;;;20832902;28;20128;-57
2023/04/22 15:54:44;;;;;;;2.20;1.00;;;21.60;27.40;;;;;;20830707;28;20062;-57
2023/04/22 16:04:45;;;;;;;2.58;1.60;;;21.60;28.30;;;;;;20832041;28;20407;-56
2023/04/22 16:14:47;;;;;;;2.38;0.90;;;21.60;28.90;;;;;;20831133;28;20057;-57
2023/04/22 16:24:48;;;;;;;2.20;0.70;;;21.60;30.20;;;;;;20830444;28;20045;-55
2023/04/22 16:34:49;;;;;;;3.60;1.30;;;21.60;28.90;;;;;;20829160;28;20051;-58
2023/04/22 16:44:51;;;;;;;3.17;1.70;;;21.20;30.40;;;;;;20828925;28;20052;-57
2023/04/22 16:54:52;;;;;;;1.10;0.80;;;21.40;31.80;;;;;;20829653;28;20049;-56
2023/04/22 17:04:54;;;;;;;1.95;1.50;;;21.30;32.00;;;;;;20843257;28;20053;-56
2023/04/22 17:14:55;;;;;;;2.40;1.00;;;21.60;31.50;;;;;;20844383;28;20049;-56
2023/04/22 17:24:57;;;;;;;5.18;3.28;;;21.40;31.10;;;;;;20843259;28;20049;-57
2023/04/22 17:34:59;;;;;;;1.77;0.87;;;21.20;31.60;;;;;;20843701;28;20045;-57
2023/04/22 17:45:00;;;;;;;6.60;4.68;;;20.90;32.50;;;;;;20842774;28;20454;-57
2023/04/22 17:55:01;;;;;;;2.75;1.70;;;20.60;35.10;;;;;;20842258;28;20092;-56
2023/04/22 18:05:04;;;;;;;5.55;2.88;;;20.60;35.40;;;;;;20840964;28;20045;-57
2023/04/22 18:15:06;;;;;;;6.13;3.93;;;20.40;32.50;;;;;;20838003;28;20061;-57
2023/04/22 18:25:08;;;;;;;3.37;1.43;;;20.30;32.20;;;;;;20839912;28;20049;-57
2023/04/22 18:35:09;;;;;;;2.22;1.10;;;20.20;32.50;;;;;;20838836;28;20045;-58
2023/04/22 18:45:11;;;;;;;6.50;2.38;;;20.20;35.90;;;;;;20837547;28;20143;-59
2023/04/22 18:55:12;;;;;;;6.07;1.75;;;20.20;34.90;;;;;;20836575;28;20050;-55
2023/04/22 19:05:14;;;;;;;3.25;1.40;;;20.30;35.90;;;;;;20835371;28;20053;-57
2023/04/22 19:15:18;;;;;;;2.72;1.13;;;20.20;35.20;;;;;;20834813;28;20072;-55
2023/04/22 19:25:20;;;;;;;15.00;8.90;;;19.90;33.10;;;;;;20834979;28;20053;-56
2023/04/22 19:35:22;;;;;;;4.10;1.65;;;19.50;33.90;;;;;;20833881;28;20475;-55
2023/04/22 19:45:23;;;;;;;3.03;1.50;;;19.20;34.30;;;;;;20833012;28;20079;-56
2023/04/22 19:55:25;;;;;;;5.65;2.47;;;19.00;34.80;;;;;;20832334;28;20046;-55
2023/04/22 20:05:27;;;;;;;5.50;1.85;;;18.80;35.10;;;;;;20831651;28;20064;-54
2023/04/22 20:15:29;;;;;;;5.03;2.88;;;18.70;35.50;;;;;;20830636;28;20111;-54
2023/04/22 20:25:31;;;;;;;5.05;1.88;;;18.50;36.00;;;;;;20830503;28;20530;-55
2023/04/22 20:35:34;;;;;;;7.38;2.65;;;18.40;36.20;;;;;;20828914;28;20049;-55
2023/04/22 20:45:36;;;;;;;4.43;1.80;;;18.30;36.40;;;;;;20829967;28;20100;-55
2023/04/22 20:55:38;;;;;;;4.95;2.00;;;18.20;36.70;;;;;;20828835;28;20060;-55
2023/04/22 21:05:41;;;;;;;4.28;2.20;;;18.10;37.20;;;;;;20829291;28;20046;-56
2023/04/22 21:15:57;;;;;;;4.47;2.10;;;18.10;37.50;;;;;;20828334;28;20053;-55
2023/04/22 21:26:00;;;;;;;4.13;1.60;;;17.90;37.70;;;;;;20828429;28;20042;-56
2023/04/22 21:36:02;;;;;;;7.47;2.10;;;17.70;38.10;;;;;;20826992;28;20495;-56
2023/04/22 21:46:03;;;;;;;3.55;1.45;;;17.70;38.20;;;;;;20831645;28;20141;-56
2023/04/22 21:56:05;;;;;;;3.47;1.50;;;17.70;38.50;;;;;;20841075;28;20363;-56
2023/04/22 22:06:07;;;;;;;4.15;3.50;;;17.50;38.60;;;;;;20839656;28;20053;-55
2023/04/22 22:16:08;;;;;;;5.40;3.00;;;17.50;38.80;;;;;;20839812;28;20060;-55
2023/04/22 22:26:10;;;;;;;7.32;2.97;;;17.40;39.10;;;;;;20840658;28;20072;-55
2023/04/22 22:36:11;;;;;;;3.72;1.45;;;17.40;39.00;;;;;;20839607;28;20052;-59
2023/04/22 22:46:13;;;;;;;2.97;1.70;;;17.30;39.20;;;;;;20837999;28;20099;-56
2023/04/22 22:56:14;;;;;;;2.38;1.30;;;17.20;39.50;;;;;;20835620;28;20049;-56
2023/04/22 23:06:16;;;;;;;5.35;1.60;;;17.10;39.70;;;;;;20836667;28;20379;-56
2023/04/22 23:16:17;;;;;;;3.80;1.23;;;17.10;39.90;;;;;;20836354;28;20057;-55
2023/04/22 23:26:19;;;;;;;4.05;1.60;;;16.90;40.00;;;;;;20836552;28;20483;-56
2023/04/22 23:36:21;;;;;;;5.38;1.95;;;16.80;40.40;;;;;;20834191;28;20046;-55
2023/04/22 23:46:22;;;;;;;3.97;1.85;;;16.80;40.70;;;;;;20832912;28;20045;-56
2023/04/22 23:56:25;;;;;;;5.13;2.20;;;16.80;41.00;;;;;;20833822;28;20049;-55
